Time;durP1;ratioP1;P1;durP2;ratioP2;P2;SDS_P1;SDS_P2;PMS_P1;PMS_P2;Temp;Humidity;BMP_temperature;BMP_pressure;BME280_temperature;BME280_humidity;BME280_pressure;Samples;Min_cycle;Max_cycle;Signal;HPM_P1;HPM_P2
2023/08/09 00:01:52;;;;;;;6.17;2.43;;;13.80;99.90;;;;;;4960643;28;20230;-72
2023/08/09 00:04:40;;;;;;;4.13;2.30;;;13.80;99.90;;;;;;4953202;28;20183;-72
2023/08/09 00:07:24;;;;;;;4.13;2.80;;;13.70;99.90;;;;;;4946514;29;20193;-70
2023/08/09 00:10:09;;;;;;;4.40;2.90;;;13.80;99.90;;;;;;4951392;28;20226;-71
2023/08/09 00:12:53;;;;;;;3.87;2.37;;;13.70;99.90;;;;;;4960045;28;20198;-71
2023/08/09 00:15:38;;;;;;;4.23;2.17;;;13.70;99.90;;;;;;4965750;28;20270;-73
2023/08/09 00:18:22;;;;;;;5.17;2.73;;;13.70;99.90;;;;;;4967470;28;20213;-71
2023/08/09 00:21:07;;;;;;;4.27;2.40;;;13.80;99.90;;;;;;4952799;28;20254;-72
2023/08/09 00:23:51;;;;;;;4.53;2.60;;;13.60;99.90;;;;;;4959398;28;20632;-73
2023/08/09 00:26:36;;;;;;;3.17;2.27;;;13.60;99.90;;;;;;4954227;29;20674;-72
2023/08/09 00:29:20;;;;;;;3.40;2.57;;;13.50;99.90;;;;;;4950927;29;20229;-69
2023/08/09 00:32:05;;;;;;;7.20;2.70;;;13.60;99.90;;;;;;4966743;28;20632;-73
2023/08/09 00:34:49;;;;;;;6.07;3.10;;;13.50;99.90;;;;;;4965057;28;20269;-73
2023/08/09 00:37:34;;;;;;;4.50;2.80;;;13.50;99.90;;;;;;4952020;29;20269;-71
2023/08/09 00:40:18;;;;;;;4.43;2.67;;;13.30;99.90;;;;;;4968349;28;20474;-70
2023/08/09 00:43:03;;;;;;;3.57;2.87;;;13.40;99.90;;;;;;4955154;28;20269;-74
2023/08/09 00:45:48;;;;;;;7.53;3.73;;;13.40;99.90;;;;;;4967153;28;20190;-74
2023/08/09 00:48:32;;;;;;;6.43;3.33;;;13.40;99.90;;;;;;4967900;28;20233;-71
2023/08/09 00:51:23;;;;;;;6.30;3.40;;;13.40;99.90;;;;;;4958337;28;20281;-72
2023/08/09 00:54:08;;;;;;;4.33;3.60;;;;;;;;;;4965977;28;20259;-71
2023/08/09 00:56:55;;;;;;;5.83;3.73;;;13.30;99.90;;;;;;4948547;28;20342;-72
2023/08/09 00:59:40;;;;;;;4.37;3.57;;;13.40;99.90;;;;;;4950153;28;20213;-70
2023/08/09 01:02:24;;;;;;;4.10;3.67;;;13.40;99.90;;;;;;4967423;28;20186;-70
2023/08/09 01:05:09;;;;;;;6.50;5.00;;;13.40;99.90;;;;;;4954153;28;20197;-71
2023/08/09 01:08:07;;;;;;;8.33;4.80;;;13.40;99.90;;;;;;4964175;28;20190;-73
2023/08/09 01:11:10;;;;;;;7.17;4.53;;;13.30;99.90;;;;;;4951425;28;20193;-74
2023/08/09 01:13:56;;;;;;;5.53;5.00;;;13.40;99.90;;;;;;4950905;28;20180;-73
2023/08/09 01:16:40;;;;;;;6.73;4.80;;;13.40;99.90;;;;;;4950223;29;20210;-72
2023/08/09 01:19:34;;;;;;;5.77;5.03;;;13.40;99.90;;;;;;4950743;28;20221;-71
2023/08/09 01:22:49;;;;;;;6.17;4.87;;;13.40;99.90;;;;;;4950782;28;20222;-69
2023/08/09 01:25:33;;;;;;;5.90;5.33;;;13.40;99.90;;;;;;4962974;28;20182;-73
2023/08/09 01:28:18;;;;;;;8.30;6.00;;;13.40;99.90;;;;;;4960580;28;20261;-73
2023/08/09 01:31:03;;;;;;;6.43;5.67;;;;;;;;;;4963226;28;20182;-74
2023/08/09 01:33:48;;;;;;;9.90;6.47;;;13.40;99.90;;;;;;4951722;29;20181;-71
2023/08/09 01:36:41;;;;;;;8.63;6.33;;;13.40;99.90;;;;;;4950647;29;20698;-71
2023/08/09 01:39:31;;;;;;;9.53;6.67;;;13.40;99.90;;;;;;4946146;29;20266;-71
2023/08/09 01:42:16;;;;;;;7.93;6.00;;;13.40;99.90;;;;;;4969038;28;20241;-73
2023/08/09 01:45:02;;;;;;;9.43;6.90;;;14.50;99.90;;;;;;4966347;28;20696;-72
2023/08/09 01:47:47;;;;;;;8.07;6.27;;;13.10;99.90;;;;;;4967868;28;20245;-71
2023/08/09 01:50:32;;;;;;;9.17;7.10;;;13.40;99.90;;;;;;4952448;29;20205;-72
2023/08/09 01:53:16;;;;;;;10.57;7.60;;;13.30;99.90;;;;;;4966491;28;20238;-70
2023/08/09 01:56:01;;;;;;;10.27;7.17;;;13.40;99.90;;;;;;4950260;29;20218;-72
2023/08/09 01:58:46;;;;;;;7.57;6.87;;;13.40;99.90;;;;;;4966544;28;20799;-69
2023/08/09 02:01:31;;;;;;;8.30;7.03;;;13.40;99.90;;;;;;4948696;29;20177;-70
2023/08/09 02:04:15;;;;;;;8.80;7.13;;;13.40;99.90;;;;;;4946400;28;20194;-73
2023/08/09 02:06:59;;;;;;;8.90;7.70;;;13.30;99.90;;;;;;4952002;29;20198;-69
2023/08/09 02:09:44;;;;;;;9.67;7.27;;;13.30;99.90;;;;;;4948268;29;20222;-73
2023/08/09 02:12:31;;;;;;;11.07;7.63;;;13.30;99.90;;;;;;4953263;28;20193;-74
2023/08/09 02:15:16;;;;;;;10.00;7.20;;;13.30;99.90;;;;;;4952172;29;20182;-74
2023/08/09 02:18:01;;;;;;;10.27;7.40;;;13.30;99.90;;;;;;4951111;29;20275;-73
2023/08/09 02:20:45;;;;;;;9.20;7.10;;;13.30;99.90;;;;;;4965095;28;20209;-73
2023/08/09 02:23:30;;;;;;;9.77;7.10;;;13.30;99.90;;;;;;4966087;28;20252;-73
2023/08/09 02:26:15;;;;;;;10.67;7.50;;;13.20;99.90;;;;;;4963821;28;20707;-72
2023/08/09 02:29:02;;;;;;;8.50;7.33;;;13.20;99.90;;;;;;4959213;28;20750;-74
2023/08/09 02:31:50;;;;;;;10.80;7.07;;;13.20;99.90;;;;;;4964833;28;20205;-74
2023/08/09 02:34:57;;;;;;;9.97;7.27;;;12.90;99.90;;;;;;4956068;28;20186;-72
2023/08/09 02:37:41;;;;;;;10.63;7.17;;;13.10;99.90;;;;;;4930808;29;20293;-69
2023/08/09 02:40:26;;;;;;;8.00;7.20;;;13.10;99.90;;;;;;4964955;28;20341;-75
2023/08/09 02:43:10;;;;;;;14.40;6.87;;;13.10;99.90;;;;;;4950395;28;20206;-70
2023/08/09 02:45:56;;;;;;;9.17;7.40;;;13.00;99.90;;;;;;4950639;29;20197;-73
2023/08/09 02:48:40;;;;;;;9.40;7.07;;;12.90;99.90;;;;;;4962088;28;20217;-73
2023/08/09 02:51:25;;;;;;;9.70;7.40;;;13.00;99.90;;;;;;4950435;29;20250;-73
2023/08/09 02:54:10;;;;;;;11.80;6.93;;;13.00;99.90;;;;;;4967694;28;20197;-71
2023/08/09 02:56:55;;;;;;;10.53;7.87;;;13.00;99.90;;;;;;4948288;28;20335;-73
2023/08/09 02:59:39;;;;;;;11.13;7.93;;;13.00;99.90;;;;;;4965191;28;20241;-72
2023/08/09 03:02:25;;;;;;;8.77;7.87;;;13.50;99.90;;;;;;4961094;28;20182;-73
2023/08/09 03:05:11;;;;;;;8.23;7.43;;;12.90;99.90;;;;;;4949397;28;20206;-70
2023/08/09 03:07:56;;;;;;;11.73;8.33;;;12.80;99.90;;;;;;4965082;28;20685;-71
2023/08/09 03:10:40;;;;;;;13.37;8.23;;;13.70;99.90;;;;;;4947789;28;20254;-73
2023/08/09 03:13:27;;;;;;;10.27;8.00;;;12.90;99.90;;;;;;4964242;28;20178;-75
2023/08/09 03:16:12;;;;;;;10.17;7.90;;;12.80;99.90;;;;;;4949599;28;20695;-69
2023/08/09 03:18:57;;;;;;;12.70;8.27;;;12.90;99.90;;;;;;4968505;28;20213;-70
2023/08/09 03:21:42;;;;;;;10.03;8.17;;;12.80;99.90;;;;;;4951438;29;20201;-71
2023/08/09 03:24:27;;;;;;;9.27;7.70;;;12.80;99.90;;;;;;4967362;28;20234;-70
2023/08/09 03:27:11;;;;;;;8.60;7.67;;;12.70;99.90;;;;;;4949212;29;20253;-72
2023/08/09 03:29:55;;;;;;;12.50;8.87;;;12.70;99.90;;;;;;4962572;28;20218;-73
2023/08/09 03:32:39;;;;;;;9.97;8.23;;;12.70;99.90;;;;;;4963328;28;20681;-73
2023/08/09 03:35:24;;;;;;;8.73;7.83;;;12.60;99.90;;;;;;4951147;28;20237;-73
2023/08/09 03:38:08;;;;;;;13.70;8.20;;;12.70;99.90;;;;;;4950690;28;20615;-72
2023/08/09 03:40:53;;;;;;;11.07;8.87;;;12.70;99.90;;;;;;4964044;28;20186;-73
2023/08/09 03:43:38;;;;;;;11.17;8.43;;;;;;;;;;4951589;28;20182;-70
2023/08/09 03:46:22;;;;;;;10.17;8.53;;;12.60;99.90;;;;;;4956978;28;20201;-70
2023/08/09 03:49:06;;;;;;;12.50;8.83;;;12.50;99.90;;;;;;4949034;28;20226;-70
2023/08/09 03:51:50;;;;;;;11.93;9.10;;;12.50;99.90;;;;;;4955727;28;20197;-70
2023/08/09 03:54:35;;;;;;;12.70;9.27;;;12.70;99.90;;;;;;4954986;28;20193;-70
2023/08/09 03:57:21;;;;;;;11.70;9.13;;;12.60;99.90;;;;;;4948589;29;20217;-72
2023/08/09 04:00:08;;;;;;;14.10;8.40;;;12.60;99.90;;;;;;4948527;28;20238;-72
2023/08/09 04:02:53;;;;;;;12.40;8.93;;;12.70;99.90;;;;;;4967932;28;20209;-70
2023/08/09 04:05:41;;;;;;;12.40;8.90;;;12.60;99.90;;;;;;4965508;28;20666;-73
2023/08/09 04:08:26;;;;;;;12.17;8.27;;;12.60;99.90;;;;;;4951729;28;20215;-71
2023/08/09 04:11:14;;;;;;;11.30;8.50;;;12.60;99.90;;;;;;4953250;28;20263;-72
2023/08/09 04:13:58;;;;;;;9.83;8.80;;;12.60;99.90;;;;;;4964958;28;20241;-73
2023/08/09 04:16:43;;;;;;;11.87;9.27;;;12.60;99.90;;;;;;4951268;29;20234;-72
2023/08/09 04:19:28;;;;;;;13.00;9.27;;;12.60;99.90;;;;;;4961750;28;20233;-71
2023/08/09 04:22:12;;;;;;;14.00;9.43;;;12.60;99.90;;;;;;4966772;28;20198;-71
2023/08/09 04:24:57;;;;;;;14.20;9.40;;;12.60;99.90;;;;;;4964026;28;20190;-70
2023/08/09 04:27:42;;;;;;;13.97;9.23;;;12.60;99.90;;;;;;4968125;28;20197;-74
2023/08/09 04:30:27;;;;;;;11.73;9.80;;;;;;;;;;4951330;28;20211;-74
2023/08/09 04:33:12;;;;;;;10.50;9.03;;;12.60;99.90;;;;;;4966462;28;20721;-73
2023/08/09 04:35:56;;;;;;;13.57;9.43;;;12.60;99.90;;;;;;4965775;28;20270;-71
2023/08/09 04:38:40;;;;;;;11.50;10.13;;;12.60;99.90;;;;;;4954537;29;20217;-72
2023/08/09 04:41:25;;;;;;;13.17;9.97;;;12.60;99.90;;;;;;4950706;28;20179;-70
2023/08/09 04:44:10;;;;;;;15.17;10.10;;;12.50;99.90;;;;;;4966468;28;20717;-72
2023/08/09 04:46:55;;;;;;;10.77;9.63;;;12.50;99.90;;;;;;4960863;28;20311;-73
2023/08/09 04:49:42;;;;;;;12.20;10.07;;;12.60;99.90;;;;;;4966329;28;20262;-71
2023/08/09 04:52:26;;;;;;;15.03;10.97;;;12.50;99.90;;;;;;4949492;28;20241;-74
2023/08/09 04:55:11;;;;;;;13.47;10.77;;;12.60;99.90;;;;;;4960983;28;20182;-74
2023/08/09 04:57:56;;;;;;;15.83;10.70;;;12.50;99.90;;;;;;4963800;28;20225;-73
2023/08/09 05:00:40;;;;;;;18.93;11.47;;;12.50;99.90;;;;;;4946482;28;20261;-71
2023/08/09 05:03:27;;;;;;;16.47;11.73;;;12.60;99.90;;;;;;4954413;28;20278;-70
2023/08/09 05:06:11;;;;;;;12.33;11.03;;;12.60;99.90;;;;;;4952185;28;20253;-69
2023/08/09 05:08:58;;;;;;;15.03;10.97;;;12.60;99.90;;;;;;4944349;29;20722;-73
2023/08/09 05:11:42;;;;;;;13.93;11.97;;;12.60;99.90;;;;;;4961255;28;20257;-73
2023/08/09 05:14:27;;;;;;;15.23;12.03;;;12.60;99.90;;;;;;4949933;28;20219;-74
2023/08/09 05:17:12;;;;;;;16.37;12.77;;;12.50;99.90;;;;;;4966474;28;20225;-77
2023/08/09 05:19:56;;;;;;;17.80;13.20;;;12.50;99.90;;;;;;4952636;28;20304;-72
2023/08/09 05:22:41;;;;;;;16.97;13.73;;;12.50;99.90;;;;;;4950576;28;20222;-74
2023/08/09 05:25:25;;;;;;;20.50;13.57;;;12.60;99.90;;;;;;4967384;28;20224;-73
2023/08/09 05:28:10;;;;;;;23.47;14.07;;;12.60;99.90;;;;;;4950137;29;20226;-71
2023/08/09 05:30:54;;;;;;;18.77;13.90;;;12.60;99.90;;;;;;4965134;28;20194;-73
2023/08/09 05:33:41;;;;;;;17.53;13.10;;;12.60;99.90;;;;;;4956955;28;20221;-75
2023/08/09 05:36:26;;;;;;;19.77;13.60;;;12.60;99.90;;;;;;4949677;28;20207;-71
2023/08/09 05:39:10;;;;;;;18.40;13.90;;;12.70;99.90;;;;;;4966625;28;20214;-72
2023/08/09 05:42:01;;;;;;;17.87;13.87;;;12.60;99.90;;;;;;4946194;29;20183;-72
2023/08/09 05:44:45;;;;;;;18.73;13.90;;;12.70;99.90;;;;;;4968016;28;20190;-72
2023/08/09 05:47:31;;;;;;;17.67;13.70;;;12.70;99.90;;;;;;4951510;28;20270;-73
2023/08/09 05:50:17;;;;;;;19.17;14.83;;;12.70;99.90;;;;;;4950701;29;20220;-72
2023/08/09 05:53:02;;;;;;;17.13;13.87;;;12.70;99.90;;;;;;4963068;28;20667;-71
2023/08/09 05:55:47;;;;;;;19.07;14.00;;;12.80;99.90;;;;;;4947840;28;20237;-73
2023/08/09 05:58:31;;;;;;;21.27;14.73;;;12.80;99.90;;;;;;4942659;29;20190;-73
2023/08/09 06:01:18;;;;;;;19.03;13.20;;;12.90;99.90;;;;;;4947940;28;20198;-73
2023/08/09 06:04:03;;;;;;;21.60;14.97;;;12.90;99.90;;;;;;4952641;29;20250;-72
2023/08/09 06:06:47;;;;;;;17.23;13.83;;;12.90;99.90;;;;;;4946012;28;20238;-71
2023/08/09 06:09:31;;;;;;;22.53;13.73;;;13.00;99.90;;;;;;4956480;28;20351;-71
2023/08/09 06:12:15;;;;;;;19.13;13.27;;;13.00;99.90;;;;;;4947683;28;20244;-72
2023/08/09 06:15:00;;;;;;;17.27;13.10;;;13.10;99.90;;;;;;4958094;28;20198;-73
2023/08/09 06:18:02;;;;;;;16.97;13.00;;;13.10;99.90;;;;;;5107510;27;21085;-74
2023/08/09 06:20:46;;;;;;;15.10;12.30;;;13.20;99.90;;;;;;5064834;28;20201;-72
2023/08/09 06:23:31;;;;;;;16.47;12.37;;;13.20;99.90;;;;;;5062053;28;20669;-73
2023/08/09 06:26:15;;;;;;;16.77;11.70;;;13.30;99.90;;;;;;5067768;28;20316;-71
2023/08/09 06:29:00;;;;;;;16.63;13.10;;;13.40;99.90;;;;;;5061554;28;20657;-73
2023/08/09 06:31:48;;;;;;;15.53;12.03;;;13.50;99.90;;;;;;5061381;28;20256;-72
2023/08/09 06:34:35;;;;;;;18.57;12.40;;;13.60;99.90;;;;;;5051756;28;20178;-71
2023/08/09 06:37:19;;;;;;;14.97;11.43;;;13.60;99.90;;;;;;5066612;28;20227;-73
2023/08/09 06:40:07;;;;;;;16.70;11.83;;;;;;;;;;5071065;28;20206;-72
2023/08/09 06:42:51;;;;;;;14.47;10.13;;;13.60;99.90;;;;;;5070427;28;20194;-71
2023/08/09 06:45:38;;;;;;;15.00;10.27;;;13.80;99.90;;;;;;5050403;28;20183;-72
2023/08/09 06:48:21;;;;;;;14.60;10.00;;;13.90;99.90;;;;;;5054153;28;20194;-72
2023/08/09 06:51:06;;;;;;;12.87;10.07;;;13.20;99.90;;;;;;5060434;28;20222;-72
2023/08/09 06:53:50;;;;;;;14.57;10.23;;;13.90;99.90;;;;;;5056954;28;20224;-73
2023/08/09 06:56:36;;;;;;;13.03;8.80;;;14.40;99.90;;;;;;5060814;28;20277;-73
2023/08/09 06:59:20;;;;;;;12.20;8.97;;;14.00;99.90;;;;;;5068552;28;20269;-73
2023/08/09 07:02:04;;;;;;;14.87;9.90;;;;;;;;;;5055813;28;20198;-72
2023/08/09 07:04:59;;;;;;;16.97;9.03;;;14.20;99.90;;;;;;5056283;28;20236;-71
2023/08/09 07:07:46;;;;;;;12.50;7.93;;;13.80;99.90;;;;;;5057050;28;20316;-73
2023/08/09 07:10:30;;;;;;;15.03;8.27;;;14.40;99.90;;;;;;5064326;28;20267;-73
2023/08/09 07:13:14;;;;;;;12.70;8.20;;;14.40;99.90;;;;;;5063012;28;20201;-73
2023/08/09 07:15:58;;;;;;;11.20;8.30;;;14.50;99.90;;;;;;5068758;28;20275;-71
2023/08/09 07:18:43;;;;;;;10.10;7.23;;;14.60;99.90;;;;;;5067558;28;20210;-72
2023/08/09 07:21:27;;;;;;;9.37;7.23;;;14.70;99.90;;;;;;5058737;28;20229;-73
2023/08/09 07:24:14;;;;;;;11.60;6.13;;;14.70;99.90;;;;;;5060545;28;20193;-72
2023/08/09 07:26:59;;;;;;;10.13;7.03;;;14.80;99.90;;;;;;5064781;28;20316;-74
2023/08/09 07:29:43;;;;;;;8.27;6.83;;;14.80;99.90;;;;;;5047432;28;20214;-73
2023/08/09 07:32:30;;;;;;;13.13;6.43;;;14.90;99.90;;;;;;5052104;28;20236;-72
2023/08/09 07:35:16;;;;;;;6.13;4.80;;;15.10;99.90;;;;;;5050025;28;20249;-72
2023/08/09 07:38:01;;;;;;;6.87;4.20;;;15.20;99.90;;;;;;5048688;28;20211;-72
2023/08/09 07:40:45;;;;;;;6.27;3.73;;;15.30;99.90;;;;;;5043743;28;20213;-75
2023/08/09 07:43:30;;;;;;;6.60;3.77;;;15.40;99.90;;;;;;5062293;28;20183;-73
2023/08/09 07:46:14;;;;;;;9.50;3.50;;;15.40;99.90;;;;;;5049334;28;20724;-73
2023/08/09 07:48:58;;;;;;;5.67;3.40;;;15.60;99.90;;;;;;5054874;28;20230;-74
2023/08/09 07:51:42;;;;;;;2.77;2.43;;;15.70;99.90;;;;;;5042605;28;20190;-74
2023/08/09 07:54:26;;;;;;;3.67;2.87;;;15.70;99.90;;;;;;5042199;28;20267;-71
2023/08/09 07:57:11;;;;;;;6.30;2.90;;;15.80;99.90;;;;;;5054302;28;20272;-74
2023/08/09 07:59:56;;;;;;;3.37;2.33;;;15.80;99.90;;;;;;5051499;28;20710;-74
2023/08/09 08:02:42;;;;;;;6.17;2.57;;;15.90;99.90;;;;;;5044445;28;20270;-74
2023/08/09 08:05:26;;;;;;;4.33;2.60;;;15.90;99.90;;;;;;5050420;28;20308;-74
2023/08/09 08:08:10;;;;;;;4.97;2.20;;;16.10;99.90;;;;;;5058447;28;20223;-73
2023/08/09 08:10:55;;;;;;;6.90;2.53;;;16.10;99.90;;;;;;5045811;28;20278;-73
2023/08/09 08:13:39;;;;;;;3.63;2.50;;;16.20;99.90;;;;;;5058315;28;20188;-72
2023/08/09 08:16:23;;;;;;;3.00;2.20;;;16.30;99.90;;;;;;5050136;28;20341;-72
2023/08/09 08:19:08;;;;;;;4.47;1.70;;;16.30;99.90;;;;;;5048340;28;20331;-72
2023/08/09 08:21:52;;;;;;;5.77;1.40;;;16.40;99.90;;;;;;5046259;28;20199;-73
2023/08/09 08:24:37;;;;;;;2.20;1.47;;;16.40;99.90;;;;;;5051700;28;20229;-73
2023/08/09 08:27:21;;;;;;;3.47;1.77;;;16.50;99.90;;;;;;5056052;28;20174;-73
2023/08/09 08:30:08;;;;;;;2.17;1.30;;;16.60;99.90;;;;;;5049986;28;20222;-72
2023/08/09 08:32:52;;;;;;;2.03;1.50;;;16.60;99.90;;;;;;5043818;28;20195;-73
2023/08/09 08:35:44;;;;;;;3.33;1.50;;;16.70;99.90;;;;;;5040665;28;20234;-72
2023/08/09 08:38:28;;;;;;;5.37;1.13;;;16.70;99.90;;;;;;5047222;28;20225;-75
2023/08/09 08:41:12;;;;;;;3.63;1.20;;;16.90;99.90;;;;;;5047006;28;20245;-72
2023/08/09 08:43:56;;;;;;;2.40;0.82;;;16.80;99.90;;;;;;5046499;28;20195;-74
2023/08/09 08:46:41;;;;;;;3.17;1.30;;;16.90;99.90;;;;;;5061080;28;20275;-74
2023/08/09 08:49:30;;;;;;;2.53;1.08;;;17.00;99.90;;;;;;5047575;28;20207;-74
2023/08/09 08:52:16;;;;;;;2.22;1.40;;;17.10;99.90;;;;;;5047776;28;20577;-73
2023/08/09 08:55:01;;;;;;;1.48;1.05;;;17.10;99.90;;;;;;5048616;28;20198;-73
2023/08/09 08:57:46;;;;;;;3.60;0.90;;;17.20;99.90;;;;;;5062369;28;20732;-73
2023/08/09 09:00:30;;;;;;;2.05;0.90;;;17.20;99.90;;;;;;5045695;28;20205;-72
2023/08/09 09:03:15;;;;;;;1.83;0.95;;;17.30;99.90;;;;;;5046179;28;20187;-73
2023/08/09 09:05:59;;;;;;;2.05;0.70;;;17.40;99.90;;;;;;5064537;28;20229;-72
2023/08/09 09:08:44;;;;;;;2.67;1.10;;;17.40;99.90;;;;;;5046219;28;20256;-74
2023/08/09 09:11:28;;;;;;;3.65;0.90;;;17.50;99.90;;;;;;5051134;28;20174;-73
2023/08/09 09:14:14;;;;;;;3.60;1.10;;;17.60;99.90;;;;;;5048799;28;20210;-74
2023/08/09 09:16:58;;;;;;;3.08;1.08;;;17.60;99.90;;;;;;5052412;28;20218;-74
2023/08/09 09:19:43;;;;;;;2.80;0.90;;;17.70;99.90;;;;;;5045863;28;20212;-74
2023/08/09 09:22:30;;;;;;;2.80;0.80;;;17.70;99.90;;;;;;5044523;28;20186;-75
2023/08/09 09:25:17;;;;;;;5.80;1.40;;;17.70;99.90;;;;;;5048985;28;20182;-74
2023/08/09 09:28:01;;;;;;;2.97;0.90;;;17.80;99.90;;;;;;5048587;28;20237;-74
2023/08/09 09:30:57;;;;;;;1.58;1.00;;;17.80;99.90;;;;;;5045515;28;20210;-74
2023/08/09 09:33:47;;;;;;;4.68;0.93;;;17.80;99.90;;;;;;5044855;28;20261;-74
2023/08/09 09:36:32;;;;;;;3.15;0.90;;;17.80;99.90;;;;;;5052786;28;20218;-72
2023/08/09 09:39:17;;;;;;;3.37;1.00;;;17.90;99.90;;;;;;5040507;28;20434;-72
2023/08/09 09:42:01;;;;;;;0.77;0.70;;;17.90;99.90;;;;;;5042343;28;20270;-73
2023/08/09 09:44:46;;;;;;;2.90;0.98;;;17.90;99.90;;;;;;5057032;28;20202;-73
2023/08/09 09:47:33;;;;;;;0.57;0.57;;;18.00;99.90;;;;;;5046088;28;20182;-72
2023/08/09 09:50:18;;;;;;;1.15;0.68;;;18.00;99.90;;;;;;5048573;28;20218;-72
2023/08/09 09:53:04;;;;;;;1.70;0.80;;;18.00;99.90;;;;;;5040758;28;20301;-73
2023/08/09 09:55:49;;;;;;;1.55;0.70;;;18.00;99.90;;;;;;5045394;28;20182;-73
2023/08/09 09:58:34;;;;;;;4.15;1.02;;;18.20;99.90;;;;;;5043119;28;20186;-71
2023/08/09 10:01:23;;;;;;;3.85;0.70;;;18.30;99.90;;;;;;5057867;28;20595;-72
2023/08/09 10:04:10;;;;;;;3.03;0.95;;;18.30;99.90;;;;;;5048808;28;20229;-74
2023/08/09 10:06:56;;;;;;;1.02;0.68;;;18.20;99.90;;;;;;5046814;28;20575;-72
2023/08/09 10:09:40;;;;;;;2.33;0.70;;;18.40;99.90;;;;;;5045885;28;20644;-73
2023/08/09 10:12:25;;;;;;;0.88;0.70;;;18.50;99.90;;;;;;5045583;28;20194;-72
2023/08/09 10:15:23;;;;;;;2.78;0.70;;;18.50;99.90;;;;;;5042561;28;20186;-71
2023/08/09 10:18:16;;;;;;;2.22;0.80;;;18.60;99.90;;;;;;5043604;28;20264;-75
2023/08/09 10:21:02;;;;;;;1.30;0.68;;;18.60;99.90;;;;;;5059568;28;20244;-75
2023/08/09 10:24:12;;;;;;;1.35;0.60;;;18.60;99.90;;;;;;5046737;28;20182;-74
2023/08/09 10:27:01;;;;;;;2.40;0.65;;;18.70;99.90;;;;;;5049606;28;20270;-73
2023/08/09 10:29:57;;;;;;;2.15;0.98;;;18.70;99.90;;;;;;5037653;28;20262;-74
2023/08/09 10:32:55;;;;;;;2.65;0.73;;;18.80;99.90;;;;;;5058146;28;20195;-74
2023/08/09 10:35:48;;;;;;;1.55;0.80;;;18.90;99.90;;;;;;5047557;28;20241;-74
2023/08/09 10:38:33;;;;;;;0.60;0.60;;;;;;;;;;5059800;28;20261;-78
2023/08/09 10:41:25;;;;;;;3.25;0.85;;;18.90;99.90;;;;;;5058559;28;20261;-73
2023/08/09 10:44:09;;;;;;;1.13;0.50;;;19.00;99.90;;;;;;5045623;28;20187;-74
2023/08/09 10:47:07;;;;;;;2.80;0.85;;;18.80;99.90;;;;;;5046723;28;20241;-74
2023/08/09 10:49:51;;;;;;;1.77;0.68;;;18.80;99.90;;;;;;5043252;28;20217;-74
2023/08/09 10:52:41;;;;;;;3.97;0.93;;;18.80;99.90;;;;;;5042229;28;20194;-75
2023/08/09 10:55:28;;;;;;;1.55;0.60;;;18.70;99.90;;;;;;5056921;28;20175;-74
2023/08/09 10:58:14;;;;;;;3.10;0.60;;;18.70;99.90;;;;;;5046900;28;20233;-74
2023/08/09 11:00:59;;;;;;;1.73;0.60;;;18.80;99.90;;;;;;5050609;28;20211;-74
2023/08/09 11:03:45;;;;;;;0.85;0.50;;;18.90;99.90;;;;;;5050832;28;20517;-74
2023/08/09 11:06:41;;;;;;;0.68;0.68;;;19.10;99.90;;;;;;5054542;28;20611;-76
2023/08/09 11:09:32;;;;;;;1.25;0.47;;;19.20;99.90;;;;;;5047820;28;20223;-74
2023/08/09 11:12:17;;;;;;;1.80;0.57;;;19.20;99.90;;;;;;5050949;28;20187;-76
2023/08/09 11:15:05;;;;;;;1.27;0.70;;;19.30;99.90;;;;;;5054491;28;20195;-75
2023/08/09 11:17:50;;;;;;;1.88;0.60;;;19.40;99.90;;;;;;5047134;28;20268;-75
2023/08/09 11:20:34;;;;;;;1.38;0.60;;;19.40;99.90;;;;;;5046338;28;20250;-72
2023/08/09 11:23:20;;;;;;;1.63;0.60;;;19.30;99.90;;;;;;5059628;28;20229;-75
2023/08/09 11:26:04;;;;;;;1.40;0.70;;;19.30;99.90;;;;;;5051181;28;20681;-71
2023/08/09 11:28:49;;;;;;;1.60;0.80;;;19.40;99.90;;;;;;5052758;28;20209;-77
2023/08/09 11:31:39;;;;;;;0.68;0.57;;;19.40;99.90;;;;;;5046396;28;20198;-74
2023/08/09 11:34:25;;;;;;;1.75;0.60;;;19.40;99.90;;;;;;5051096;28;20187;-74
2023/08/09 11:37:09;;;;;;;0.90;0.70;;;19.40;99.90;;;;;;5049672;28;20217;-75
2023/08/09 11:39:53;;;;;;;0.65;0.65;;;19.60;99.90;;;;;;5048649;28;20218;-78
2023/08/09 11:42:38;;;;;;;1.95;0.70;;;19.70;99.90;;;;;;5049227;28;20195;-75
2023/08/09 11:45:22;;;;;;;2.20;0.75;;;19.70;99.90;;;;;;5051813;28;20359;-73
2023/08/09 11:48:08;;;;;;;1.70;0.65;;;19.70;99.90;;;;;;5048054;28;20194;-74
2023/08/09 11:51:09;;;;;;;2.45;0.50;;;19.70;99.90;;;;;;5049559;28;20191;-72
2023/08/09 11:53:54;;;;;;;0.75;0.55;;;19.70;99.90;;;;;;5050350;28;20197;-75
2023/08/09 11:56:38;;;;;;;4.45;1.27;;;19.70;99.90;;;;;;5047304;28;20428;-74
2023/08/09 11:59:23;;;;;;;1.58;0.93;;;19.70;99.90;;;;;;5047813;28;20268;-75
2023/08/09 12:02:07;;;;;;;2.78;0.60;;;19.70;99.90;;;;;;5049321;28;20230;-77
2023/08/09 12:04:52;;;;;;;1.05;0.80;;;19.70;99.90;;;;;;5050917;28;20189;-74
2023/08/09 12:07:36;;;;;;;0.68;0.50;;;19.70;99.90;;;;;;5051189;28;20195;-73
2023/08/09 12:10:22;;;;;;;0.60;0.60;;;19.70;99.90;;;;;;5053312;28;20226;-73
2023/08/09 12:13:06;;;;;;;0.75;0.50;;;19.60;99.90;;;;;;5055079;28;20241;-74
2023/08/09 12:15:50;;;;;;;0.60;0.50;;;19.60;99.90;;;;;;5051409;28;20252;-75
2023/08/09 12:18:36;;;;;;;2.13;0.73;;;19.60;99.90;;;;;;5047156;28;20190;-75
2023/08/09 12:21:21;;;;;;;2.75;0.70;;;19.60;99.90;;;;;;5051067;28;20321;-74
2023/08/09 12:24:06;;;;;;;1.33;0.50;;;19.50;99.90;;;;;;5055315;28;20233;-75
2023/08/09 12:26:50;;;;;;;1.05;0.70;;;19.70;99.90;;;;;;5059034;28;20260;-75
2023/08/09 12:29:35;;;;;;;2.65;1.00;;;19.80;99.90;;;;;;5047532;28;20756;-75
2023/08/09 12:32:20;;;;;;;1.08;0.60;;;19.80;99.90;;;;;;5044503;28;20283;-77
2023/08/09 12:35:06;;;;;;;1.77;0.50;;;19.70;99.90;;;;;;5045566;28;20347;-75
2023/08/09 12:37:50;;;;;;;0.93;0.50;;;19.70;99.90;;;;;;5044444;28;20290;-74
2023/08/09 12:40:34;;;;;;;4.55;0.60;;;19.60;99.90;;;;;;5048858;28;20238;-74
2023/08/09 12:43:18;;;;;;;3.10;0.90;;;19.50;99.90;;;;;;5049123;28;20667;-76
2023/08/09 12:46:02;;;;;;;1.88;0.63;;;19.60;99.90;;;;;;5049648;28;20670;-74
2023/08/09 12:48:46;;;;;;;3.03;0.70;;;19.60;99.90;;;;;;5050507;28;20228;-74
2023/08/09 12:51:31;;;;;;;1.77;0.90;;;19.60;99.90;;;;;;5047963;28;20206;-74
2023/08/09 12:54:16;;;;;;;2.10;0.77;;;19.30;99.90;;;;;;5043859;28;20215;-74
2023/08/09 12:57:01;;;;;;;2.03;0.70;;;19.50;99.90;;;;;;5045868;28;20218;-75
2023/08/09 12:59:45;;;;;;;0.80;0.70;;;19.40;99.90;;;;;;5050113;28;20276;-75
2023/08/09 13:02:29;;;;;;;1.52;0.70;;;19.50;99.90;;;;;;5053124;28;20198;-75
2023/08/09 13:05:15;;;;;;;2.60;0.75;;;19.50;99.90;;;;;;5049319;28;20209;-74
2023/08/09 13:08:00;;;;;;;1.63;0.70;;;19.50;99.90;;;;;;5043985;28;20218;-74
2023/08/09 13:10:44;;;;;;;3.85;0.60;;;19.40;99.90;;;;;;5053171;28;20214;-77
2023/08/09 13:13:28;;;;;;;2.25;0.85;;;19.60;99.90;;;;;;5051986;28;20198;-75
2023/08/09 13:16:12;;;;;;;1.95;0.68;;;19.70;99.90;;;;;;5045872;28;20197;-74
2023/08/09 13:18:56;;;;;;;0.98;0.68;;;19.80;99.90;;;;;;5044452;28;20576;-74
2023/08/09 13:21:40;;;;;;;3.15;0.95;;;19.80;99.90;;;;;;5062052;28;20232;-74
2023/08/09 13:24:24;;;;;;;1.70;0.80;;;20.00;99.90;;;;;;5049400;28;20190;-73
2023/08/09 13:27:09;;;;;;;0.90;0.60;;;;;;;;;;5054418;28;20222;-75
2023/08/09 13:29:53;;;;;;;1.33;0.88;;;20.30;99.90;;;;;;5046325;28;20225;-74
2023/08/09 13:32:37;;;;;;;1.80;0.82;;;20.20;99.90;;;;;;5046667;28;20223;-74
2023/08/09 13:35:22;;;;;;;0.95;0.68;;;20.40;99.90;;;;;;5047956;28;20236;-73
2023/08/09 13:38:07;;;;;;;1.17;0.98;;;20.50;99.90;;;;;;5049367;28;20657;-73
2023/08/09 13:40:54;;;;;;;3.67;0.70;;;20.60;99.90;;;;;;5045841;28;20187;-74
2023/08/09 13:43:38;;;;;;;1.17;0.52;;;20.70;99.90;;;;;;5042473;28;20187;-74
2023/08/09 13:46:22;;;;;;;1.45;0.85;;;20.80;99.90;;;;;;5046876;28;20206;-74
2023/08/09 13:49:06;;;;;;;0.68;0.60;;;21.00;99.90;;;;;;5048552;28;20222;-74
2023/08/09 13:51:51;;;;;;;0.90;0.90;;;21.00;99.90;;;;;;5041223;28;20233;-73
2023/08/09 13:54:35;;;;;;;2.78;0.90;;;21.00;99.90;;;;;;5045181;28;20264;-73
2023/08/09 13:57:21;;;;;;;2.50;0.90;;;21.00;99.90;;;;;;5051192;28;20215;-72
2023/08/09 14:00:07;;;;;;;3.45;0.85;;;21.00;99.90;;;;;;5045084;28;20744;-72
2023/08/09 14:02:52;;;;;;;2.33;1.00;;;21.10;99.90;;;;;;5055416;28;20653;-73
2023/08/09 14:05:39;;;;;;;2.80;0.90;;;21.10;99.90;;;;;;5051102;28;20559;-72
2023/08/09 14:08:23;;;;;;;1.35;0.65;;;21.10;99.90;;;;;;5045583;28;20233;-72
2023/08/09 14:11:07;;;;;;;2.05;0.80;;;21.10;99.90;;;;;;5042415;28;20187;-71
2023/08/09 14:13:52;;;;;;;1.65;0.80;;;21.20;99.90;;;;;;5043272;28;20214;-70
2023/08/09 14:16:36;;;;;;;2.33;0.80;;;21.20;99.90;;;;;;5047313;28;20257;-74
2023/08/09 14:19:21;;;;;;;1.35;0.88;;;21.20;99.90;;;;;;5045759;28;20257;-73
2023/08/09 14:22:05;;;;;;;2.25;0.90;;;21.20;99.90;;;;;;5049671;28;20203;-74